Pagrindinis puslapis
METAR-TAF:

METAR-TAF

Oro uostai :

Ponapė, Mikronezija

platuma: 06-59N, ilguma: 158-12E, Aukštis: 2 m

Dabartinis oras

Ataskaita buvo paskelbta 1 valandą ir 54 minutes, ne 14:50 UTC
Vėjas 3 kt iš Pietų/Pietryčių
Temperatūra 24°C
Drėgmė 100%
Slėgis 1008 hPa
Matomumas: 24.1 km
Išsisklaidę debesys ne aukštis 1800 ft
Išsisklaidę debesys ne aukštis 30000 ft

METAR: PTPN 071450Z 15003KT 15SM SCT018 SCT300 24/24 A2978 RMK LAST

Laikas: 03:44 (16:44 UTC)

Prognozė

Ataskaita buvo paskelbta 5 valandos ir 24 minutes, ne 11:20 UTC
Prognozė galioja nuo 07 metu 12 UTC su 08 metu 12 UTC
Vėjas 3 kt iš Pietų/Pietryčių
Matomumas: 10 km
Išsisklaidę debesys ne aukštis 1800 ft
Liūtis kaimynystėje
Nuo 07 metu 1900 UTC
Vėjas 7 kt iš Rytų
Matomumas: 10 km
Išsisklaidę debesys ne aukštis 1800 ft
Liūtis kaimynystėje

TAF: PTPN 071120Z 0712/0812 16003KT P6SM VCSH SCT018 FM071900 09007KT P6SM VCSH SCT018

Orai ataskaitas ir orų prognozės (METAR, TAF).

turimą stotys yra geltonos ir raudonos taškus žemėlapyje.

Perkelti pele per norėdami pamatyti stoties vardą.

Tada spustelėkite, norėdami matyti oro stebėjimo ir prognozės.

Norėdami pakeisti žemėlapį: spustelėkite ant žalios mygtukų su juodo kryžiaus žemyn,; žalią mygtuką su brūkšneliu, jei norite nutolinti; arba žalių rodyklių gretimoms žemėlapius.


METAR-TAF: